sensor_id;sensor_type;location;lat;lon;timestamp;P1;durP1;ratioP1;P2;durP2;ratioP2
65641;SDS011;52340;-6.720;108.544;2022-07-29T00:00:47;64.85;;;37.90;;
65641;SDS011;52340;-6.720;108.544;2022-07-29T00:01:48;71.28;;;40.25;;
65641;SDS011;52340;-6.720;108.544;2022-07-29T00:02:50;75.68;;;41.95;;
65641;SDS011;52340;-6.720;108.544;2022-07-29T00:03:54;66.20;;;38.83;;
65641;SDS011;52340;-6.720;108.544;2022-07-29T00:04:55;73.40;;;41.70;;
65641;SDS011;52340;-6.720;108.544;2022-07-29T00:05:57;79.93;;;43.72;;
65641;SDS011;52340;-6.720;108.544;2022-07-29T00:06:59;79.93;;;44.78;;
65641;SDS011;52340;-6.720;108.544;2022-07-29T00:08:01;84.63;;;46.67;;
65641;SDS011;52340;-6.720;108.544;2022-07-29T00:09:03;88.68;;;47.97;;
65641;SDS011;52340;-6.720;108.544;2022-07-29T00:10:05;95.00;;;50.63;;
65641;SDS011;52340;-6.720;108.544;2022-07-29T00:11:07;94.25;;;51.83;;
65641;SDS011;52340;-6.720;108.544;2022-07-29T00:12:11;90.63;;;52.22;;
65641;SDS011;52340;-6.720;108.544;2022-07-29T00:13:13;90.47;;;53.28;;
65641;SDS011;52340;-6.720;108.544;2022-07-29T00:14:14;95.65;;;54.25;;
65641;SDS011;52340;-6.720;108.544;2022-07-29T00:15:16;92.75;;;52.75;;
65641;SDS011;52340;-6.720;108.544;2022-07-29T00:16:18;86.00;;;50.63;;
65641;SDS011;52340;-6.720;108.544;2022-07-29T00:17:22;83.50;;;48.25;;
65641;SDS011;52340;-6.720;108.544;2022-07-29T00:18:24;75.80;;;44.92;;
65641;SDS011;52340;-6.720;108.544;2022-07-29T00:19:28;64.45;;;41.45;;
65641;SDS011;52340;-6.720;108.544;2022-07-29T00:20:30;61.67;;;39.40;;
65641;SDS011;52340;-6.720;108.544;2022-07-29T00:21:32;58.33;;;36.83;;
65641;SDS011;52340;-6.720;108.544;2022-07-29T00:22:36;56.28;;;36.15;;
65641;SDS011;52340;-6.720;108.544;2022-07-29T00:23:39;57.03;;;34.55;;
65641;SDS011;52340;-6.720;108.544;2022-07-29T00:24:41;52.35;;;34.38;;
65641;SDS011;52340;-6.720;108.544;2022-07-29T00:25:42;53.90;;;34.65;;
65641;SDS011;52340;-6.720;108.544;2022-07-29T00:26:44;51.33;;;32.47;;
65641;SDS011;52340;-6.720;108.544;2022-07-29T00:27:46;46.50;;;32.78;;
65641;SDS011;52340;-6.720;108.544;2022-07-29T00:32:18;49.88;;;32.47;;
65641;SDS011;52340;-6.720;108.544;2022-07-29T00:34:32;49.65;;;33.78;;
65641;SDS011;52340;-6.720;108.544;2022-07-29T00:35:33;50.78;;;34.40;;
65641;SDS011;52340;-6.720;108.544;2022-07-29T00:36:35;43.60;;;32.58;;
65641;SDS011;52340;-6.720;108.544;2022-07-29T00:38:45;48.53;;;32.38;;
65641;SDS011;52340;-6.720;108.544;2022-07-29T01:08:50;48.38;;;33.10;;
65641;SDS011;52340;-6.720;108.544;2022-07-29T01:09:52;50.75;;;33.40;;
65641;SDS011;52340;-6.720;108.544;2022-07-29T01:17:58;48.55;;;30.80;;
65641;SDS011;52340;-6.720;108.544;2022-07-29T01:19:04;43.60;;;28.52;;
65641;SDS011;52340;-6.720;108.544;2022-07-29T01:37:32;37.30;;;26.85;;
65641;SDS011;52340;-6.720;108.544;2022-07-29T03:21:05;22.85;;;16.73;;
65641;SDS011;52340;-6.720;108.544;2022-07-29T03:26:47;23.80;;;18.10;;
65641;SDS011;52340;-6.720;108.544;2022-07-29T03:27:51;24.33;;;17.45;;
65641;SDS011;52340;-6.720;108.544;2022-07-29T03:28:53;24.08;;;18.15;;
65641;SDS011;52340;-6.720;108.544;2022-07-29T03:29:55;25.17;;;19.02;;
65641;SDS011;52340;-6.720;108.544;2022-07-29T03:30:57;25.67;;;17.98;;
65641;SDS011;52340;-6.720;108.544;2022-07-29T03:31:59;26.98;;;18.02;;
65641;SDS011;52340;-6.720;108.544;2022-07-29T03:33:02;25.50;;;18.13;;
65641;SDS011;52340;-6.720;108.544;2022-07-29T03:34:04;28.42;;;18.08;;
65641;SDS011;52340;-6.720;108.544;2022-07-29T03:35:06;24.85;;;18.13;;
65641;SDS011;52340;-6.720;108.544;2022-07-29T03:36:10;27.88;;;18.25;;
65641;SDS011;52340;-6.720;108.544;2022-07-29T03:37:11;28.08;;;18.85;;
65641;SDS011;52340;-6.720;108.544;2022-07-29T03:38:13;25.90;;;18.60;;
65641;SDS011;52340;-6.720;108.544;2022-07-29T03:39:15;28.75;;;21.80;;
65641;SDS011;52340;-6.720;108.544;2022-07-29T03:40:21;45.83;;;32.40;;
65641;SDS011;52340;-6.720;108.544;2022-07-29T03:41:25;53.88;;;34.22;;
65641;SDS011;52340;-6.720;108.544;2022-07-29T03:42:28;63.92;;;41.00;;
65641;SDS011;52340;-6.720;108.544;2022-07-29T03:44:39;56.65;;;36.22;;
65641;SDS011;52340;-6.720;108.544;2022-07-29T03:45:44;50.67;;;30.52;;
65641;SDS011;52340;-6.720;108.544;2022-07-29T03:46:48;38.63;;;27.38;;
65641;SDS011;52340;-6.720;108.544;2022-07-29T03:49:01;40.25;;;26.13;;
65641;SDS011;52340;-6.720;108.544;2022-07-29T03:53:28;43.40;;;26.20;;
65641;SDS011;52340;-6.720;108.544;2022-07-29T03:56:51;35.17;;;21.25;;
65641;SDS011;52340;-6.720;108.544;2022-07-29T03:57:53;30.52;;;20.10;;
65641;SDS011;52340;-6.720;108.544;2022-07-29T04:02:27;26.67;;;18.92;;
65641;SDS011;52340;-6.720;108.544;2022-07-29T04:03:29;28.27;;;17.85;;
65641;SDS011;52340;-6.720;108.544;2022-07-29T04:22:02;26.00;;;16.90;;
65641;SDS011;52340;-6.720;108.544;2022-07-29T04:23:04;24.92;;;16.80;;
65641;SDS011;52340;-6.720;108.544;2022-07-29T04:24:06;24.75;;;17.02;;
65641;SDS011;52340;-6.720;108.544;2022-07-29T04:27:22;28.33;;;16.38;;
65641;SDS011;52340;-6.720;108.544;2022-07-29T04:28:24;24.98;;;15.40;;
65641;SDS011;52340;-6.720;108.544;2022-07-29T04:29:25;21.27;;;15.88;;
65641;SDS011;52340;-6.720;108.544;2022-07-29T04:30:27;24.92;;;15.80;;
65641;SDS011;52340;-6.720;108.544;2022-07-29T04:31:32;21.30;;;16.13;;
65641;SDS011;52340;-6.720;108.544;2022-07-29T04:32:34;21.23;;;15.75;;
65641;SDS011;52340;-6.720;108.544;2022-07-29T04:33:36;22.55;;;15.32;;
65641;SDS011;52340;-6.720;108.544;2022-07-29T04:35:38;21.70;;;15.40;;
65641;SDS011;52340;-6.720;108.544;2022-07-29T04:36:39;22.98;;;16.35;;
65641;SDS011;52340;-6.720;108.544;2022-07-29T04:37:43;22.88;;;15.93;;
65641;SDS011;52340;-6.720;108.544;2022-07-29T04:38:45;23.15;;;15.27;;
65641;SDS011;52340;-6.720;108.544;2022-07-29T04:39:47;20.58;;;15.52;;
65641;SDS011;52340;-6.720;108.544;2022-07-29T04:40:50;20.33;;;14.82;;
65641;SDS011;52340;-6.720;108.544;2022-07-29T04:41:51;25.15;;;15.38;;
65641;SDS011;52340;-6.720;108.544;2022-07-29T04:42:53;22.35;;;14.80;;
65641;SDS011;52340;-6.720;108.544;2022-07-29T04:43:55;19.55;;;15.27;;
65641;SDS011;52340;-6.720;108.544;2022-07-29T04:44:57;21.90;;;15.25;;
65641;SDS011;52340;-6.720;108.544;2022-07-29T04:45:59;25.52;;;15.50;;
65641;SDS011;52340;-6.720;108.544;2022-07-29T04:47:00;21.92;;;15.20;;
65641;SDS011;52340;-6.720;108.544;2022-07-29T04:48:02;21.73;;;14.68;;
65641;SDS011;52340;-6.720;108.544;2022-07-29T04:49:05;18.92;;;14.25;;
65641;SDS011;52340;-6.720;108.544;2022-07-29T04:50:07;20.83;;;14.48;;
65641;SDS011;52340;-6.720;108.544;2022-07-29T04:51:12;21.75;;;14.93;;
65641;SDS011;52340;-6.720;108.544;2022-07-29T04:52:24;22.92;;;15.30;;
65641;SDS011;52340;-6.720;108.544;2022-07-29T04:53:27;23.00;;;14.88;;
65641;SDS011;52340;-6.720;108.544;2022-07-29T04:54:29;23.52;;;15.00;;
65641;SDS011;52340;-6.720;108.544;2022-07-29T04:55:31;24.25;;;14.82;;
65641;SDS011;52340;-6.720;108.544;2022-07-29T04:56:33;20.30;;;14.70;;
65641;SDS011;52340;-6.720;108.544;2022-07-29T04:57:35;20.25;;;14.27;;
65641;SDS011;52340;-6.720;108.544;2022-07-29T04:58:37;21.45;;;14.90;;
65641;SDS011;52340;-6.720;108.544;2022-07-29T04:59:39;18.38;;;13.98;;
65641;SDS011;52340;-6.720;108.544;2022-07-29T05:00:40;24.30;;;14.30;;
65641;SDS011;52340;-6.720;108.544;2022-07-29T05:01:42;19.98;;;14.27;;
65641;SDS011;52340;-6.720;108.544;2022-07-29T05:02:44;21.90;;;14.15;;
65641;SDS011;52340;-6.720;108.544;2022-07-29T05:06:06;21.52;;;13.82;;
65641;SDS011;52340;-6.720;108.544;2022-07-29T05:07:08;18.17;;;13.70;;
65641;SDS011;52340;-6.720;108.544;2022-07-29T05:08:10;19.90;;;13.43;;
65641;SDS011;52340;-6.720;108.544;2022-07-29T05:09:14;20.27;;;13.77;;
65641;SDS011;52340;-6.720;108.544;2022-07-29T05:10:16;18.63;;;13.82;;
65641;SDS011;52340;-6.720;108.544;2022-07-29T05:11:25;18.00;;;13.02;;
65641;SDS011;52340;-6.720;108.544;2022-07-29T05:12:27;20.38;;;13.10;;
65641;SDS011;52340;-6.720;108.544;2022-07-29T05:14:33;19.38;;;12.95;;
65641;SDS011;52340;-6.720;108.544;2022-07-29T05:15:34;18.42;;;12.85;;
65641;SDS011;52340;-6.720;108.544;2022-07-29T05:16:36;19.65;;;13.35;;
65641;SDS011;52340;-6.720;108.544;2022-07-29T05:21:05;28.73;;;15.27;;
65641;SDS011;52340;-6.720;108.544;2022-07-29T05:22:09;24.98;;;14.60;;
65641;SDS011;52340;-6.720;108.544;2022-07-29T05:24:17;19.98;;;13.98;;
65641;SDS011;52340;-6.720;108.544;2022-07-29T05:25:19;21.90;;;14.10;;
65641;SDS011;52340;-6.720;108.544;2022-07-29T05:26:21;19.63;;;13.68;;
65641;SDS011;52340;-6.720;108.544;2022-07-29T05:27:22;21.52;;;13.50;;
65641;SDS011;52340;-6.720;108.544;2022-07-29T05:28:24;20.55;;;13.65;;
65641;SDS011;52340;-6.720;108.544;2022-07-29T05:29:26;16.83;;;12.80;;
65641;SDS011;52340;-6.720;108.544;2022-07-29T05:30:28;20.58;;;13.02;;
65641;SDS011;52340;-6.720;108.544;2022-07-29T05:31:30;19.33;;;13.38;;
65641;SDS011;52340;-6.720;108.544;2022-07-29T05:32:34;17.15;;;13.02;;
65641;SDS011;52340;-6.720;108.544;2022-07-29T05:33:36;19.10;;;13.52;;
65641;SDS011;52340;-6.720;108.544;2022-07-29T05:34:37;18.98;;;13.07;;
65641;SDS011;52340;-6.720;108.544;2022-07-29T05:35:39;17.40;;;13.00;;
65641;SDS011;52340;-6.720;108.544;2022-07-29T05:38:51;18.13;;;13.02;;
65641;SDS011;52340;-6.720;108.544;2022-07-29T05:39:55;20.00;;;13.88;;
65641;SDS011;52340;-6.720;108.544;2022-07-29T05:40:57;22.55;;;13.63;;
65641;SDS011;52340;-6.720;108.544;2022-07-29T05:44:00;18.48;;;13.73;;
65641;SDS011;52340;-6.720;108.544;2022-07-29T05:45:02;21.67;;;13.77;;
65641;SDS011;52340;-6.720;108.544;2022-07-29T05:46:05;18.38;;;12.90;;
65641;SDS011;52340;-6.720;108.544;2022-07-29T05:54:01;17.65;;;12.88;;
65641;SDS011;52340;-6.720;108.544;2022-07-29T05:57:10;20.48;;;13.13;;
65641;SDS011;52340;-6.720;108.544;2022-07-29T05:58:19;19.83;;;12.32;;
65641;SDS011;52340;-6.720;108.544;2022-07-29T05:59:26;15.48;;;12.63;;
65641;SDS011;52340;-6.720;108.544;2022-07-29T06:00:28;16.52;;;12.73;;
65641;SDS011;52340;-6.720;108.544;2022-07-29T06:01:30;17.30;;;12.25;;
65641;SDS011;52340;-6.720;108.544;2022-07-29T06:02:32;18.92;;;12.98;;
65641;SDS011;52340;-6.720;108.544;2022-07-29T06:03:33;18.75;;;12.48;;
65641;SDS011;52340;-6.720;108.544;2022-07-29T06:04:39;18.90;;;12.65;;
65641;SDS011;52340;-6.720;108.544;2022-07-29T06:05:42;17.05;;;12.25;;
65641;SDS011;52340;-6.720;108.544;2022-07-29T06:06:45;17.42;;;12.63;;
65641;SDS011;52340;-6.720;108.544;2022-07-29T06:07:47;17.73;;;12.10;;
65641;SDS011;52340;-6.720;108.544;2022-07-29T06:08:52;17.55;;;12.10;;
65641;SDS011;52340;-6.720;108.544;2022-07-29T06:09:54;18.08;;;12.32;;
65641;SDS011;52340;-6.720;108.544;2022-07-29T06:10:56;16.10;;;11.85;;
65641;SDS011;52340;-6.720;108.544;2022-07-29T06:11:58;18.23;;;12.13;;
65641;SDS011;52340;-6.720;108.544;2022-07-29T06:14:20;23.25;;;13.02;;
65641;SDS011;52340;-6.720;108.544;2022-07-29T06:15:23;20.13;;;12.48;;
65641;SDS011;52340;-6.720;108.544;2022-07-29T06:16:29;18.63;;;12.70;;
65641;SDS011;52340;-6.720;108.544;2022-07-29T06:17:33;18.75;;;11.98;;
65641;SDS011;52340;-6.720;108.544;2022-07-29T06:18:35;16.90;;;11.80;;
65641;SDS011;52340;-6.720;108.544;2022-07-29T06:19:37;16.45;;;12.25;;
65641;SDS011;52340;-6.720;108.544;2022-07-29T06:20:41;19.77;;;12.38;;
65641;SDS011;52340;-6.720;108.544;2022-07-29T06:21:43;18.38;;;12.52;;
65641;SDS011;52340;-6.720;108.544;2022-07-29T06:22:45;17.60;;;12.18;;
65641;SDS011;52340;-6.720;108.544;2022-07-29T06:25:55;17.05;;;12.05;;
65641;SDS011;52340;-6.720;108.544;2022-07-29T06:31:32;14.23;;;11.30;;
65641;SDS011;52340;-6.720;108.544;2022-07-29T06:32:34;14.35;;;11.20;;
65641;SDS011;52340;-6.720;108.544;2022-07-29T06:34:46;14.90;;;11.32;;
65641;SDS011;52340;-6.720;108.544;2022-07-29T06:36:58;17.50;;;12.03;;
65641;SDS011;52340;-6.720;108.544;2022-07-29T06:39:10;17.50;;;11.27;;
65641;SDS011;52340;-6.720;108.544;2022-07-29T06:44:53;16.58;;;11.65;;
65641;SDS011;52340;-6.720;108.544;2022-07-29T06:47:06;17.67;;;10.75;;
65641;SDS011;52340;-6.720;108.544;2022-07-29T06:50:19;15.70;;;11.13;;
65641;SDS011;52340;-6.720;108.544;2022-07-29T06:54:51;18.42;;;11.20;;
65641;SDS011;52340;-6.720;108.544;2022-07-29T07:00:36;15.75;;;10.70;;
65641;SDS011;52340;-6.720;108.544;2022-07-29T07:08:41;16.02;;;10.93;;
65641;SDS011;52340;-6.720;108.544;2022-07-29T07:28:16;18.38;;;13.43;;
65641;SDS011;52340;-6.720;108.544;2022-07-29T07:40:56;18.23;;;13.13;;
65641;SDS011;52340;-6.720;108.544;2022-07-29T08:01:43;16.58;;;12.20;;
65641;SDS011;52340;-6.720;108.544;2022-07-29T08:36:34;18.27;;;12.18;;
65641;SDS011;52340;-6.720;108.544;2022-07-29T08:56:13;19.05;;;12.63;;
65641;SDS011;52340;-6.720;108.544;2022-07-29T08:59:35;19.73;;;13.00;;
65641;SDS011;52340;-6.720;108.544;2022-07-29T09:01:49;19.85;;;13.55;;
65641;SDS011;52340;-6.720;108.544;2022-07-29T09:11:05;17.43;;;12.43;;
65641;SDS011;52340;-6.720;108.544;2022-07-29T11:29:19;18.65;;;11.77;;
65641;SDS011;52340;-6.720;108.544;2022-07-29T11:38:32;20.27;;;11.85;;
65641;SDS011;52340;-6.720;108.544;2022-07-29T11:40:49;19.25;;;11.90;;
65641;SDS011;52340;-6.720;108.544;2022-07-29T16:16:49;57.78;;;40.75;;
65641;SDS011;52340;-6.720;108.544;2022-07-29T22:42:52;210.55;;;94.78;;
65641;SDS011;52340;-6.720;108.544;2022-07-29T22:43:54;200.70;;;92.93;;
65641;SDS011;52340;-6.720;108.544;2022-07-29T22:44:56;185.13;;;87.20;;
65641;SDS011;52340;-6.720;108.544;2022-07-29T22:45:57;183.45;;;88.53;;
65641;SDS011;52340;-6.720;108.544;2022-07-29T22:46:59;164.55;;;80.88;;
65641;SDS011;52340;-6.720;108.544;2022-07-29T22:48:01;156.82;;;77.82;;
65641;SDS011;52340;-6.720;108.544;2022-07-29T22:49:03;149.30;;;76.18;;
65641;SDS011;52340;-6.720;108.544;2022-07-29T22:50:05;132.93;;;71.25;;
65641;SDS011;52340;-6.720;108.544;2022-07-29T22:51:07;130.15;;;67.85;;
65641;SDS011;52340;-6.720;108.544;2022-07-29T22:52:09;128.82;;;66.07;;
65641;SDS011;52340;-6.720;108.544;2022-07-29T22:53:11;123.63;;;62.03;;
65641;SDS011;52340;-6.720;108.544;2022-07-29T22:54:12;108.80;;;59.00;;
65641;SDS011;52340;-6.720;108.544;2022-07-29T22:55:14;100.22;;;58.47;;
65641;SDS011;52340;-6.720;108.544;2022-07-29T22:56:16;91.32;;;55.70;;
65641;SDS011;52340;-6.720;108.544;2022-07-29T22:57:18;89.95;;;53.90;;
65641;SDS011;52340;-6.720;108.544;2022-07-29T22:58:22;84.95;;;52.10;;
65641;SDS011;52340;-6.720;108.544;2022-07-29T22:59:24;84.72;;;51.03;;
65641;SDS011;52340;-6.720;108.544;2022-07-29T23:00:26;81.68;;;51.13;;
65641;SDS011;52340;-6.720;108.544;2022-07-29T23:01:27;80.03;;;50.17;;
65641;SDS011;52340;-6.720;108.544;2022-07-29T23:02:29;79.28;;;50.25;;
65641;SDS011;52340;-6.720;108.544;2022-07-29T23:03:31;83.18;;;51.45;;
65641;SDS011;52340;-6.720;108.544;2022-07-29T23:04:33;82.22;;;49.72;;
65641;SDS011;52340;-6.720;108.544;2022-07-29T23:05:35;80.53;;;49.65;;
65641;SDS011;52340;-6.720;108.544;2022-07-29T23:06:37;76.30;;;49.00;;
65641;SDS011;52340;-6.720;108.544;2022-07-29T23:07:39;77.03;;;48.92;;
65641;SDS011;52340;-6.720;108.544;2022-07-29T23:08:40;80.38;;;49.20;;
65641;SDS011;52340;-6.720;108.544;2022-07-29T23:09:42;75.00;;;49.33;;
65641;SDS011;52340;-6.720;108.544;2022-07-29T23:10:44;76.00;;;48.17;;
65641;SDS011;52340;-6.720;108.544;2022-07-29T23:11:46;73.82;;;48.20;;
65641;SDS011;52340;-6.720;108.544;2022-07-29T23:12:48;76.70;;;48.95;;
65641;SDS011;52340;-6.720;108.544;2022-07-29T23:13:52;74.53;;;49.17;;
65641;SDS011;52340;-6.720;108.544;2022-07-29T23:14:54;74.47;;;48.58;;
65641;SDS011;52340;-6.720;108.544;2022-07-29T23:15:56;78.53;;;49.13;;
65641;SDS011;52340;-6.720;108.544;2022-07-29T23:16:58;74.15;;;48.60;;
65641;SDS011;52340;-6.720;108.544;2022-07-29T23:17:59;73.47;;;46.72;;
65641;SDS011;52340;-6.720;108.544;2022-07-29T23:19:04;73.38;;;48.33;;
65641;SDS011;52340;-6.720;108.544;2022-07-29T23:20:06;75.35;;;47.47;;
65641;SDS011;52340;-6.720;108.544;2022-07-29T23:21:08;72.40;;;48.20;;
65641;SDS011;52340;-6.720;108.544;2022-07-29T23:22:10;73.97;;;48.00;;
65641;SDS011;52340;-6.720;108.544;2022-07-29T23:23:12;73.47;;;48.38;;
65641;SDS011;52340;-6.720;108.544;2022-07-29T23:24:13;71.10;;;45.92;;
65641;SDS011;52340;-6.720;108.544;2022-07-29T23:26:22;72.43;;;48.45;;
65641;SDS011;52340;-6.720;108.544;2022-07-29T23:27:23;71.10;;;47.58;;
65641;SDS011;52340;-6.720;108.544;2022-07-29T23:28:25;71.72;;;47.45;;
65641;SDS011;52340;-6.720;108.544;2022-07-29T23:29:28;70.63;;;47.08;;
65641;SDS011;52340;-6.720;108.544;2022-07-29T23:30:30;75.60;;;49.40;;
65641;SDS011;52340;-6.720;108.544;2022-07-29T23:31:32;72.75;;;48.45;;
65641;SDS011;52340;-6.720;108.544;2022-07-29T23:32:34;78.25;;;49.53;;
65641;SDS011;52340;-6.720;108.544;2022-07-29T23:33:36;76.10;;;50.90;;
65641;SDS011;52340;-6.720;108.544;2022-07-29T23:34:44;72.47;;;48.78;;
65641;SDS011;52340;-6.720;108.544;2022-07-29T23:35:45;76.80;;;50.63;;
65641;SDS011;52340;-6.720;108.544;2022-07-29T23:36:47;73.15;;;50.20;;
65641;SDS011;52340;-6.720;108.544;2022-07-29T23:37:49;71.20;;;48.38;;
